Time;durP1;ratioP1;P1;durP2;ratioP2;P2;SDS_P1;SDS_P2;PMS_P1;PMS_P2;Temp;Humidity;BMP_temperature;BMP_pressure;BME280_temperature;BME280_humidity;BME280_pressure;Samples;Min_cycle;Max_cycle;Signal;HPM_P1;HPM_P2
2023/04/17 00:01:36;;;;;;;34.30;22.20;;;;;;;;;;107732;1248;25429;-80
2023/04/17 00:04:02;;;;;;;33.10;23.30;;;;;;;;;;107824;1247;22549;-80
2023/04/17 00:06:32;;;;;;;31.90;18.50;;;;;;;;;;107803;1248;22524;-79
2023/04/17 00:08:58;;;;;;;30.10;17.10;;;;;;;;;;107797;1253;25319;-79
2023/04/17 00:11:25;;;;;;;30.90;19.00;;;;;;;;;;107811;1249;22517;-79
2023/04/17 00:13:51;;;;;;;28.80;17.20;;;;;;;;;;107801;1248;24212;-80
2023/04/17 00:16:18;;;;;;;31.90;18.90;;;;;;;;;;107782;1250;22540;-80
2023/04/17 00:18:44;;;;;;;28.50;17.70;;;;;;;;;;107885;1248;22522;-79
2023/04/17 00:21:10;;;;;;;30.00;16.40;;;;;;;;;;107870;1248;26722;-78
2023/04/17 00:23:37;;;;;;;31.50;18.40;;;;;;;;;;107808;1248;22545;-79
2023/04/17 00:26:03;;;;;;;29.60;18.40;;;;;;;;;;107862;1252;22552;-79
2023/04/17 00:28:29;;;;;;;31.50;17.30;;;;;;;;;;107831;1250;23755;-80
2023/04/17 00:30:57;;;;;;;28.40;17.40;;;;;;;;;;107766;1251;22537;-79
2023/04/17 00:33:24;;;;;;;30.10;16.70;;;;;;;;;;107816;1248;22524;-79
2023/04/17 00:35:50;;;;;;;29.50;17.70;;;;;;;;;;107803;1248;22526;-79
2023/04/17 00:38:16;;;;;;;25.90;15.90;;;;;;;;;;107822;1248;22530;-79
2023/04/17 00:40:45;;;;;;;30.60;17.10;;;;;;;;;;107788;1248;25399;-79
2023/04/17 00:43:11;;;;;;;30.40;17.30;;;;;;;;;;109025;1249;22994;-79
2023/04/17 00:45:37;;;;;;;26.50;16.70;;;;;;;;;;107825;1248;23738;-80
2023/04/17 00:48:05;;;;;;;29.30;18.30;;;;;;;;;;107929;1250;22520;-79
2023/04/17 00:50:32;;;;;;;30.60;21.30;;;;;;;;;;107836;1249;22544;-79
2023/04/17 00:52:58;;;;;;;34.10;19.00;;;;;;;;;;107735;1248;23497;-79
2023/04/17 00:55:25;;;;;;;28.80;16.40;;;;;;;;;;107734;1248;22552;-79
2023/04/17 00:57:51;;;;;;;29.00;18.50;;;;;;;;;;107701;1250;22521;-80
2023/04/17 01:00:18;;;;;;;33.10;22.10;;;;;;;;;;107709;1252;22518;-79
2023/04/17 01:02:44;;;;;;;32.60;19.10;;;;;;;;;;107807;1248;24196;-80
2023/04/17 01:05:11;;;;;;;26.60;16.30;;;;;;;;;;107805;1252;22982;-79
2023/04/17 01:07:37;;;;;;;27.60;13.20;;;;;;;;;;107828;1248;22582;-79
2023/04/17 01:10:04;;;;;;;29.90;14.90;;;;;;;;;;107815;1248;22540;-79
2023/04/17 01:12:31;;;;;;;24.10;13.70;;;;;;;;;;107789;1248;22866;-79
2023/04/17 01:14:57;;;;;;;24.40;12.40;;;;;;;;;;107871;1249;25208;-80
2023/04/17 01:17:27;;;;;;;19.90;13.40;;;;;;;;;;107809;1249;22932;-79
2023/04/17 01:19:53;;;;;;;28.50;20.10;;;;;;;;;;107816;1248;25326;-80
2023/04/17 01:22:20;;;;;;;30.60;20.10;;;;;;;;;;107847;1252;22522;-79
2023/04/17 01:24:46;;;;;;;30.40;19.70;;;;;;;;;;107870;1248;22533;-79
2023/04/17 01:27:14;;;;;;;29.30;18.20;;;;;;;;;;108371;1250;22528;-80
2023/04/17 01:29:41;;;;;;;27.80;16.00;;;;;;;;;;108427;1252;25268;-79
2023/04/17 01:32:07;;;;;;;26.00;14.40;;;;;;;;;;107847;1250;22524;-79
2023/04/17 01:34:33;;;;;;;25.40;14.30;;;;;;;;;;107827;1249;23636;-79
2023/04/17 01:37:00;;;;;;;28.40;17.00;;;;;;;;;;107831;1250;22551;-79
2023/04/17 01:39:26;;;;;;;25.10;15.90;;;;;;;;;;107814;1250;23293;-80
2023/04/17 01:41:53;;;;;;;28.10;13.80;;;;;;;;;;107853;1248;25485;-80
2023/04/17 01:44:19;;;;;;;26.20;16.00;;;;;;;;;;107908;1249;22535;-79
2023/04/17 01:46:46;;;;;;;40.10;24.50;;;;;;;;;;107856;1249;22515;-79
2023/04/17 01:49:12;;;;;;;28.60;15.80;;;;;;;;;;107819;1250;22548;-79
2023/04/17 01:51:39;;;;;;;27.90;17.10;;;;;;;;;;107886;1248;22570;-79
2023/04/17 01:54:05;;;;;;;23.40;16.30;;;;;;;;;;108934;1250;25373;-80
2023/04/17 01:56:32;;;;;;;30.00;18.40;;;;;;;;;;107789;1252;27211;-80
2023/04/17 01:58:58;;;;;;;29.80;19.30;;;;;;;;;;107568;1250;173727;-80
2023/04/17 02:01:25;;;;;;;28.50;17.60;;;;;;;;;;107728;1248;22518;-78
2023/04/17 02:03:51;;;;;;;33.70;19.60;;;;;;;;;;107799;1250;25353;-79
2023/04/17 02:06:18;;;;;;;32.90;20.20;;;;;;;;;;107800;1250;23221;-78
2023/04/17 02:08:44;;;;;;;29.50;16.20;;;;;;;;;;107879;1248;24212;-79
2023/04/17 02:11:12;;;;;;;32.50;20.10;;;;;;;;;;107793;1248;24242;-78
2023/04/17 02:13:38;;;;;;;37.00;23.80;;;;;;;;;;107778;1248;24100;-79
2023/04/17 02:16:06;;;;;;;35.20;21.50;;;;;;;;;;107798;1250;24189;-79
2023/04/17 02:18:33;;;;;;;33.30;22.90;;;;;;;;;;108450;1252;22545;-79
2023/04/17 02:20:59;;;;;;;25.20;15.90;;;;;;;;;;107820;1250;22532;-80
2023/04/17 02:23:25;;;;;;;33.90;17.40;;;;;;;;;;107913;1250;23816;-79
2023/04/17 02:25:51;;;;;;;25.60;15.90;;;;;;;;;;107813;1250;22521;-79
2023/04/17 02:28:18;;;;;;;28.60;16.40;;;;;;;;;;107742;1248;25266;-80
2023/04/17 02:30:44;;;;;;;30.80;18.30;;;;;;;;;;110463;1249;23172;-79
2023/04/17 02:33:11;;;;;;;32.80;19.30;;;;;;;;;;111010;1249;22482;-79
2023/04/17 02:35:37;;;;;;;36.20;20.60;;;;;;;;;;108975;1249;25300;-78
2023/04/17 02:38:04;;;;;;;31.30;19.30;;;;;;;;;;107840;1249;24930;-79
2023/04/17 02:40:30;;;;;;;32.30;22.20;;;;;;;;;;107852;1251;22537;-79
2023/04/17 02:42:56;;;;;;;37.40;23.30;;;;;;;;;;107775;1250;25364;-79
2023/04/17 02:45:23;;;;;;;36.40;23.10;;;;;;;;;;107863;1249;25268;-79
2023/04/17 02:47:49;;;;;;;36.80;23.70;;;;;;;;;;107846;1250;22547;-78
2023/04/17 02:50:15;;;;;;;30.40;16.00;;;;;;;;;;109801;1249;22142;-79
2023/04/17 02:52:42;;;;;;;26.50;15.20;;;;;;;;;;110940;1248;22324;-80
2023/04/17 02:55:08;;;;;;;24.60;14.10;;;;;;;;;;110964;1248;22293;-80
2023/04/17 02:57:35;;;;;;;21.70;13.40;;;;;;;;;;110973;1248;22182;-79
2023/04/17 03:00:03;;;;;;;20.80;13.70;;;;;;;;;;110980;1248;22377;-79
2023/04/17 03:02:30;;;;;;;28.40;14.80;;;;;;;;;;111062;1247;23079;-79
2023/04/17 03:05:00;;;;;;;21.80;14.80;;;;;;;;;;111021;1247;22577;-79
2023/04/17 03:07:27;;;;;;;24.40;13.30;;;;;;;;;;111044;1247;22113;-80
2023/04/17 03:09:56;;;;;;;21.80;13.10;;;;;;;;;;108926;1247;22983;-78
2023/04/17 03:12:22;;;;;;;27.90;15.30;;;;;;;;;;107954;1247;22566;-79
2023/04/17 03:14:49;;;;;;;32.30;14.50;;;;;;;;;;107703;1254;22530;-79
2023/04/17 03:17:15;;;;;;;24.10;14.20;;;;;;;;;;107970;1247;25368;-79
2023/04/17 03:19:42;;;;;;;21.20;12.90;;;;;;;;;;107939;1247;23002;-79
2023/04/17 03:22:09;;;;;;;25.50;14.10;;;;;;;;;;107847;1248;25147;-79
2023/04/17 03:24:35;;;;;;;26.60;15.10;;;;;;;;;;107910;1247;22599;-78
2023/04/17 03:27:01;;;;;;;24.80;15.10;;;;;;;;;;107930;1247;26387;-79
2023/04/17 03:29:28;;;;;;;25.20;13.80;;;;;;;;;;107797;1250;24246;-78
2023/04/17 03:31:54;;;;;;;29.00;14.70;;;;;;;;;;107826;1250;23185;-78
2023/04/17 03:34:20;;;;;;;21.90;13.50;;;;;;;;;;107767;1250;23035;-79
2023/04/17 03:36:47;;;;;;;37.10;20.50;;;;;;;;;;107773;1248;22541;-80
2023/04/17 03:39:13;;;;;;;29.70;22.50;;;;;;;;;;107833;1250;24261;-79
2023/04/17 03:41:39;;;;;;;33.80;18.80;;;;;;;;;;108888;1248;22858;-79
2023/04/17 03:44:07;;;;;;;37.50;16.60;;;;;;;;;;110868;1250;22320;-80
2023/04/17 03:46:34;;;;;;;30.00;16.80;;;;;;;;;;109504;1249;22606;-78
2023/04/17 03:49:00;;;;;;;27.30;19.30;;;;;;;;;;107810;1250;22532;-79
2023/04/17 03:51:27;;;;;;;29.50;22.50;;;;;;;;;;107793;1252;22519;-79
2023/04/17 03:53:53;;;;;;;39.00;23.90;;;;;;;;;;107824;1248;22590;-80
2023/04/17 03:56:20;;;;;;;29.70;19.60;;;;;;;;;;107768;1250;24369;-80
2023/04/17 03:58:47;;;;;;;34.80;22.90;;;;;;;;;;107644;1249;25344;-80
2023/04/17 04:01:13;;;;;;;36.30;25.10;;;;;;;;;;107726;1249;25378;-78
2023/04/17 04:03:40;;;;;;;27.70;18.00;;;;;;;;;;107764;1249;22528;-79
2023/04/17 04:06:06;;;;;;;24.40;15.20;;;;;;;;;;107812;1250;22524;-78
2023/04/17 04:08:33;;;;;;;30.40;17.70;;;;;;;;;;107764;1250;23242;-80
2023/04/17 04:10:59;;;;;;;38.20;21.80;;;;;;;;;;107760;1249;23220;-79
2023/04/17 04:13:25;;;;;;;48.70;28.10;;;;;;;;;;107793;1249;22476;-78
2023/04/17 04:15:52;;;;;;;30.20;20.00;;;;;;;;;;107740;1250;22528;-79
2023/04/17 04:18:18;;;;;;;27.20;14.40;;;;;;;;;;107831;1249;22531;-79
2023/04/17 04:20:45;;;;;;;31.40;18.00;;;;;;;;;;107716;1250;22524;-80
2023/04/17 04:23:12;;;;;;;24.30;15.50;;;;;;;;;;107797;1250;22603;-79
2023/04/17 04:25:40;;;;;;;27.30;16.50;;;;;;;;;;107739;1248;22561;-79
2023/04/17 04:28:07;;;;;;;25.20;15.10;;;;;;;;;;107798;1249;22518;-80
2023/04/17 04:30:37;;;;;;;31.70;18.90;;;;;;;;;;107878;1248;25304;-79
2023/04/17 04:33:04;;;;;;;26.90;18.50;;;;;;;;;;107814;1252;22517;-79
2023/04/17 04:35:30;;;;;;;26.40;15.80;;;;;;;;;;108254;1248;24383;-79
2023/04/17 04:38:01;;;;;;;28.70;15.90;;;;;;;;;;107742;1249;25388;-80
2023/04/17 04:40:29;;;;;;;27.90;17.10;;;;;;;;;;107848;1250;25275;-79
2023/04/17 04:42:55;;;;;;;32.10;17.20;;;;;;;;;;107828;1249;22542;-80
2023/04/17 04:45:22;;;;;;;31.00;17.60;;;;;;;;;;107800;1248;24275;-79
2023/04/17 04:47:48;;;;;;;35.50;17.50;;;;;;;;;;107773;1249;22554;-78
2023/04/17 04:50:15;;;;;;;30.10;17.60;;;;;;;;;;107733;1250;24251;-79
2023/04/17 04:52:41;;;;;;;28.50;18.10;;;;;;;;;;107802;1252;22520;-79
2023/04/17 04:55:08;;;;;;;30.30;17.70;;;;;;;;;;107869;1248;23005;-78
2023/04/17 04:57:35;;;;;;;33.50;19.20;;;;;;;;;;107831;1250;22554;-79
2023/04/17 05:00:05;;;;;;;31.30;16.20;;;;;;;;;;107739;1251;25394;-78
2023/04/17 05:02:32;;;;;;;29.40;17.30;;;;;;;;;;107764;1250;23273;-79
2023/04/17 05:04:58;;;;;;;25.60;16.70;;;;;;;;;;107748;1250;22541;-78
2023/04/17 05:07:24;;;;;;;26.60;16.40;;;;;;;;;;107802;1248;22518;-79
2023/04/17 05:09:51;;;;;;;33.30;18.70;;;;;;;;;;107679;1253;22519;-79
2023/04/17 05:12:17;;;;;;;34.20;17.90;;;;;;;;;;107738;1248;22965;-79
2023/04/17 05:14:44;;;;;;;34.10;18.40;;;;;;;;;;107710;1250;22514;-78
2023/04/17 05:17:10;;;;;;;30.10;16.30;;;;;;;;;;107709;1249;23397;-79
2023/04/17 05:19:36;;;;;;;31.50;18.90;;;;;;;;;;107753;1252;22966;-79
2023/04/17 05:22:03;;;;;;;32.60;21.20;;;;;;;;;;107769;1250;22535;-79
2023/04/17 05:24:30;;;;;;;33.10;19.10;;;;;;;;;;108323;1250;22533;-79
2023/04/17 05:26:57;;;;;;;31.30;19.30;;;;;;;;;;107815;1250;22528;-79
2023/04/17 05:29:24;;;;;;;30.80;19.60;;;;;;;;;;108916;1249;23286;-80
2023/04/17 05:31:50;;;;;;;29.10;18.40;;;;;;;;;;107755;1248;25489;-79
2023/04/17 05:34:16;;;;;;;33.80;19.00;;;;;;;;;;107730;1249;25417;-78
2023/04/17 05:36:43;;;;;;;35.30;20.50;;;;;;;;;;107864;1251;22544;-79
2023/04/17 05:39:09;;;;;;;47.90;24.40;;;;;;;;;;107804;1247;22561;-79
2023/04/17 05:41:35;;;;;;;46.40;22.50;;;;;;;;;;107763;1252;22547;-79
2023/04/17 05:44:02;;;;;;;40.80;26.10;;;;;;;;;;107729;1248;22534;-78
2023/04/17 05:46:28;;;;;;;52.00;27.80;;;;;;;;;;107679;1248;22628;-79
2023/04/17 05:48:54;;;;;;;63.90;30.50;;;;;;;;;;107775;1248;25428;-79
2023/04/17 05:51:21;;;;;;;54.50;29.30;;;;;;;;;;107746;1249;24943;-78
2023/04/17 05:53:47;;;;;;;46.40;29.50;;;;;;;;;;107974;1249;25419;-78
2023/04/17 05:56:14;;;;;;;47.80;30.90;;;;;;;;;;107731;1249;25292;-80
2023/04/17 05:58:40;;;;;;;40.80;27.20;;;;;;;;;;107834;1250;22518;-80
2023/04/17 06:01:07;;;;;;;46.10;29.00;;;;;;;;;;107810;1250;22560;-78
2023/04/17 06:03:33;;;;;;;37.20;25.20;;;;;;;;;;107845;1248;22985;-78
2023/04/17 06:06:00;;;;;;;47.70;28.40;;;;;;;;;;108015;1250;23641;-79
2023/04/17 06:08:26;;;;;;;52.70;30.00;;;;;;;;;;108014;1250;25252;-80
2023/04/17 06:10:54;;;;;;;60.10;38.90;;;;;;;;;;107898;1250;22544;-79
2023/04/17 06:13:22;;;;;;;55.60;34.40;;;;;;;;;;107880;1248;22548;-80
2023/04/17 06:15:49;;;;;;;40.90;28.70;;;;;;;;;;107954;1250;22663;-78
2023/04/17 06:18:16;;;;;;;46.30;26.60;;;;;;;;;;108426;1250;22530;-80
2023/04/17 06:20:43;;;;;;;36.70;23.30;;;;;;;;;;107953;1252;22549;-79
2023/04/17 06:23:10;;;;;;;37.50;23.50;;;;;;;;;;108531;1251;25289;-79
2023/04/17 06:25:36;;;;;;;33.10;22.10;;;;;;;;;;107909;1252;23030;-80
2023/04/17 06:28:03;;;;;;;31.40;18.70;;;;;;;;;;108166;1250;22545;-79
2023/04/17 06:30:29;;;;;;;46.80;20.70;;;;;;;;;;108034;1250;22530;-80
2023/04/17 06:32:55;;;;;;;36.10;20.80;;;;;;;;;;108143;1250;22521;-78
2023/04/17 06:35:22;;;;;;;63.10;33.00;;;;;;;;;;108346;1250;22496;-79
2023/04/17 06:37:48;;;;;;;36.40;22.90;;;;;;;;;;108401;1249;25256;-80
2023/04/17 06:40:14;;;;;;;27.30;16.40;;;;;;;;;;108146;1250;22641;-79
2023/04/17 06:42:41;;;;;;;23.70;14.20;;;;;;;;;;108135;1250;22738;-78
2023/04/17 06:45:07;;;;;;;24.60;16.60;;;;;;;;;;108331;1250;22540;-79
2023/04/17 06:47:34;;;;;;;29.30;19.50;;;;;;;;;;108459;1248;22631;-79
2023/04/17 06:50:00;;;;;;;33.60;24.40;;;;;;;;;;108346;1250;22521;-78
2023/04/17 06:52:26;;;;;;;33.60;20.40;;;;;;;;;;108307;1250;22531;-80
2023/04/17 06:54:53;;;;;;;32.50;23.30;;;;;;;;;;108244;1248;24452;-78
2023/04/17 06:57:20;;;;;;;48.80;22.40;;;;;;;;;;108080;1250;23393;-80
2023/04/17 06:59:47;;;;;;;35.00;19.50;;;;;;;;;;108394;1250;23225;-80
2023/04/17 07:02:13;;;;;;;41.50;20.30;;;;;;;;;;108254;1250;22533;-80
2023/04/17 07:04:40;;;;;;;79.30;38.50;;;;;;;;;;107867;1250;25419;-79
2023/04/17 07:07:07;;;;;;;48.60;21.80;;;;;;;;;;108002;1249;22660;-79
2023/04/17 07:09:33;;;;;;;54.60;20.00;;;;;;;;;;107734;1249;22533;-78
2023/04/17 07:11:59;;;;;;;55.10;25.30;;;;;;;;;;107984;1252;22556;-80
2023/04/17 07:14:26;;;;;;;58.40;25.20;;;;;;;;;;108371;1249;23961;-78
2023/04/17 07:16:52;;;;;;;61.70;27.80;;;;;;;;;;108295;1250;22560;-80
2023/04/17 07:19:18;;;;;;;74.50;31.10;;;;;;;;;;108292;1249;22546;-78
2023/04/17 07:21:45;;;;;;;132.00;66.30;;;;;;;;;;108292;1248;22813;-78
2023/04/17 07:24:12;;;;;;;339.80;174.90;;;;;;;;;;108301;1250;22684;-81
2023/04/17 07:26:39;;;;;;;152.20;79.80;;;;;;;;;;108147;1250;25496;-81
2023/04/17 07:29:05;;;;;;;97.90;45.10;;;;;;;;;;108630;1250;22514;-80
2023/04/17 07:31:32;;;;;;;99.30;51.80;;;;;;;;;;108218;1250;22537;-78
2023/04/17 07:33:59;;;;;;;98.70;44.10;;;;;;;;;;108315;1248;25316;-80
2023/04/17 07:36:27;;;;;;;77.10;33.00;;;;;;;;;;109110;1248;23799;-78
2023/04/17 07:38:53;;;;;;;77.60;30.10;;;;;;;;;;108411;1250;24945;-78
2023/04/17 07:41:20;;;;;;;62.20;28.00;;;;;;;;;;108272;1252;24280;-80
2023/04/17 07:43:46;;;;;;;65.80;25.90;;;;;;;;;;109154;1250;22516;-79
2023/04/17 07:46:13;;;;;;;76.30;30.90;;;;;;;;;;107987;1250;22534;-79
2023/04/17 07:48:39;;;;;;;65.80;27.80;;;;;;;;;;108000;1249;22543;-82
2023/04/17 07:51:06;;;;;;;64.70;30.70;;;;;;;;;;108648;1249;23333;-78
2023/04/17 07:53:34;;;;;;;74.90;35.70;;;;;;;;;;107879;1249;23325;-77
2023/04/17 07:56:01;;;;;;;77.50;38.70;;;;;;;;;;108313;1250;22573;-78
2023/04/17 07:58:27;;;;;;;86.10;38.90;;;;;;;;;;108344;1248;22528;-78
2023/04/17 08:00:54;;;;;;;84.40;38.90;;;;;;;;;;108400;1248;22563;-78
2023/04/17 08:03:20;;;;;;;109.60;40.90;;;;;;;;;;108140;1248;24122;-80
2023/04/17 08:05:47;;;;;;;92.50;38.60;;;;;;;;;;107997;1250;22758;-79
2023/04/17 08:08:14;;;;;;;89.80;36.60;;;;;;;;;;108009;1249;25338;-79
2023/04/17 08:10:41;;;;;;;78.20;36.60;;;;;;;;;;107890;1250;25558;-77
2023/04/17 08:13:07;;;;;;;80.90;36.40;;;;;;;;;;107890;1250;22534;-79
2023/04/17 08:15:34;;;;;;;84.80;34.80;;;;;;;;;;108645;1252;27080;-79
2023/04/17 08:18:00;;;;;;;73.00;31.20;;;;;;;;;;107926;1252;22558;-77
2023/04/17 08:20:26;;;;;;;75.60;35.10;;;;;;;;;;107988;1248;22551;-79
2023/04/17 08:22:53;;;;;;;68.80;32.40;;;;;;;;;;108181;1250;22594;-79
2023/04/17 08:25:20;;;;;;;73.70;33.00;;;;;;;;;;107988;1250;24240;-79
2023/04/17 08:27:46;;;;;;;74.80;36.30;;;;;;;;;;107970;1252;25486;-78
2023/04/17 08:30:14;;;;;;;76.50;34.70;;;;;;;;;;107930;1250;22583;-77
2023/04/17 08:32:41;;;;;;;88.70;36.70;;;;;;;;;;110823;1249;23121;-78
2023/04/17 08:35:10;;;;;;;68.80;30.30;;;;;;;;;;109128;1250;24873;-78
2023/04/17 08:37:37;;;;;;;75.20;31.20;;;;;;;;;;107853;1250;25387;-78
2023/04/17 08:40:05;;;;;;;69.20;28.80;;;;;;;;;;107998;1248;25380;-78
2023/04/17 08:42:33;;;;;;;92.30;35.90;;;;;;;;;;110654;1250;22483;-80
2023/04/17 08:45:00;;;;;;;76.00;35.00;;;;;;;;;;110683;1251;22630;-80
2023/04/17 08:47:27;;;;;;;73.80;32.70;;;;;;;;;;110345;1249;22577;-80
2023/04/17 08:49:54;;;;;;;70.20;31.40;;;;;;;;;;108325;1250;25503;-77
2023/04/17 08:52:21;;;;;;;71.70;34.10;;;;;;;;;;108304;1249;25331;-78
2023/04/17 08:54:47;;;;;;;76.00;35.90;;;;;;;;;;108263;1250;23007;-77
2023/04/17 08:57:14;;;;;;;70.20;34.90;;;;;;;;;;108353;1249;22530;-79
2023/04/17 08:59:40;;;;;;;62.90;28.30;;;;;;;;;;108358;1249;25281;-77
2023/04/17 09:02:07;;;;;;;63.70;29.00;;;;;;;;;;108042;1250;24317;-79
2023/04/17 09:04:40;;;;;;;60.80;30.40;;;;;;;;;;107661;1250;25344;-78
2023/04/17 09:07:07;;;;;;;58.20;28.60;;;;;;;;;;107774;1250;23230;-80
2023/04/17 09:09:52;;;;;;;63.40;31.20;;;;;;;;;;107748;1250;25481;-79
2023/04/17 09:12:19;;;;;;;60.10;29.40;;;;;;;;;;108256;1250;23157;-80
2023/04/17 09:14:45;;;;;;;64.20;28.50;;;;;;;;;;108173;1252;23049;-81
2023/04/17 09:17:13;;;;;;;51.30;27.90;;;;;;;;;;108235;1250;24419;-79
2023/04/17 09:19:58;;;;;;;59.60;29.60;;;;;;;;;;107730;1250;22518;-80
2023/04/17 09:22:24;;;;;;;59.70;28.40;;;;;;;;;;107717;1250;22697;-79
2023/04/17 09:24:51;;;;;;;65.70;31.20;;;;;;;;;;107879;1250;22599;-80
2023/04/17 09:27:19;;;;;;;58.80;32.70;;;;;;;;;;108916;1250;22521;-81
2023/04/17 09:29:58;;;;;;;55.90;29.70;;;;;;;;;;108998;1250;22567;-81
2023/04/17 09:32:25;;;;;;;59.40;29.90;;;;;;;;;;109046;1250;22844;-79
2023/04/17 09:34:52;;;;;;;52.60;26.60;;;;;;;;;;108469;1250;22690;-79
2023/04/17 09:37:21;;;;;;;52.10;29.10;;;;;;;;;;108642;1249;24352;-79
2023/04/17 09:40:01;;;;;;;61.40;30.10;;;;;;;;;;107803;1253;23013;-79
2023/04/17 09:42:27;;;;;;;57.60;29.30;;;;;;;;;;107721;1250;22537;-78
2023/04/17 09:44:53;;;;;;;63.90;29.90;;;;;;;;;;107854;1251;22544;-79
2023/04/17 09:47:21;;;;;;;60.90;31.10;;;;;;;;;;107752;1250;24192;-79
2023/04/17 09:49:49;;;;;;;60.00;29.70;;;;;;;;;;108457;1252;22536;-78
2023/04/17 09:52:15;;;;;;;58.50;29.00;;;;;;;;;;108078;1250;23350;-79
2023/04/17 09:54:42;;;;;;;56.90;30.50;;;;;;;;;;107693;1250;25401;-79
2023/04/17 09:57:09;;;;;;;58.50;30.30;;;;;;;;;;107681;1252;23095;-77
2023/04/17 09:59:38;;;;;;;66.80;34.20;;;;;;;;;;107734;1250;22540;-79
2023/04/17 10:02:08;;;;;;;52.60;27.70;;;;;;;;;;108675;1250;22532;-77
2023/04/17 10:04:35;;;;;;;57.90;30.00;;;;;;;;;;107856;1252;22543;-79
2023/04/17 10:07:01;;;;;;;69.80;38.10;;;;;;;;;;107896;1248;25529;-79
2023/04/17 10:09:28;;;;;;;58.40;30.00;;;;;;;;;;107800;1252;23292;-79
2023/04/17 10:11:55;;;;;;;52.30;26.40;;;;;;;;;;107735;1250;25513;-79
2023/04/17 10:14:25;;;;;;;47.10;28.10;;;;;;;;;;107794;1250;25221;-79
2023/04/17 10:16:52;;;;;;;45.10;23.30;;;;;;;;;;107839;1250;25508;-79
2023/04/17 10:19:29;;;;;;;49.40;27.30;;;;;;;;;;107804;1248;26030;-79
2023/04/17 10:22:14;;;;;;;60.00;29.00;;;;;;;;;;107710;1250;25399;-78
2023/04/17 10:24:41;;;;;;;55.10;30.80;;;;;;;;;;107732;1250;22536;-79
2023/04/17 10:27:26;;;;;;;47.80;25.80;;;;;;;;;;107905;1250;22536;-79
2023/04/17 10:29:56;;;;;;;46.90;24.40;;;;;;;;;;107791;1249;25397;-78
2023/04/17 10:32:24;;;;;;;44.50;25.80;;;;;;;;;;107611;1250;22769;-78
2023/04/17 10:34:51;;;;;;;45.00;23.80;;;;;;;;;;108065;1252;25378;-78
2023/04/17 10:37:17;;;;;;;49.30;28.10;;;;;;;;;;107925;1250;22569;-79
2023/04/17 10:39:55;;;;;;;51.30;29.10;;;;;;;;;;107818;1250;25869;-78
2023/04/17 10:42:21;;;;;;;48.70;27.20;;;;;;;;;;107811;1252;26588;-78
2023/04/17 10:44:48;;;;;;;45.70;26.70;;;;;;;;;;107643;1250;25389;-80
2023/04/17 10:47:18;;;;;;;47.80;27.00;;;;;;;;;;107900;1250;22693;-79
2023/04/17 10:49:53;;;;;;;43.50;24.80;;;;;;;;;;107806;1250;22541;-81
2023/04/17 10:52:33;;;;;;;49.50;28.10;;;;;;;;;;107885;1251;22544;-79
2023/04/17 10:55:16;;;;;;;41.40;24.20;;;;;;;;;;107699;1252;25262;-78
2023/04/17 10:58:02;;;;;;;45.40;24.40;;;;;;;;;;108059;1249;22582;-78
2023/04/17 11:00:29;;;;;;;42.20;25.70;;;;;;;;;;108041;1249;22558;-77
2023/04/17 11:02:55;;;;;;;48.20;26.60;;;;;;;;;;107924;1250;22557;-79
2023/04/17 11:05:23;;;;;;;39.50;25.00;;;;;;;;;;108451;1251;24242;-80
2023/04/17 11:07:49;;;;;;;40.30;24.40;;;;;;;;;;107922;1252;25262;-80
2023/04/17 11:10:19;;;;;;;37.80;24.30;;;;;;;;;;107830;1250;22621;-78
2023/04/17 11:12:48;;;;;;;45.50;27.40;;;;;;;;;;107717;1252;22550;-78
2023/04/17 11:15:17;;;;;;;45.50;25.40;;;;;;;;;;107673;1252;22551;-78
2023/04/17 11:17:47;;;;;;;43.00;25.20;;;;;;;;;;107814;1250;23235;-78
2023/04/17 11:20:17;;;;;;;39.00;22.90;;;;;;;;;;107819;1248;23399;-79
2023/04/17 11:22:44;;;;;;;37.60;23.00;;;;;;;;;;108009;1252;22520;-79
2023/04/17 11:25:20;;;;;;;45.10;25.80;;;;;;;;;;108216;1249;22661;-79
2023/04/17 11:27:50;;;;;;;49.10;27.20;;;;;;;;;;108150;1251;23315;-79
2023/04/17 11:30:46;;;;;;;47.90;29.80;;;;;;;;;;107788;1250;24190;-79
2023/04/17 11:33:13;;;;;;;43.40;27.40;;;;;;;;;;107750;1252;25386;-79
2023/04/17 11:35:39;;;;;;;49.30;28.00;;;;;;;;;;107713;1252;23386;-79
2023/04/17 11:38:10;;;;;;;51.20;28.70;;;;;;;;;;108006;1252;23282;-81
2023/04/17 11:40:43;;;;;;;49.60;29.00;;;;;;;;;;108478;1248;24301;-80
2023/04/17 11:43:09;;;;;;;52.60;30.90;;;;;;;;;;108385;1249;24282;-81
2023/04/17 11:45:36;;;;;;;49.30;32.30;;;;;;;;;;107898;1250;22581;-77
2023/04/17 11:48:03;;;;;;;43.40;27.10;;;;;;;;;;108267;1250;23143;-78
2023/04/17 11:50:29;;;;;;;48.90;29.90;;;;;;;;;;108461;1253;25389;-79
2023/04/17 11:52:59;;;;;;;46.40;28.00;;;;;;;;;;108230;1251;22532;-79
2023/04/17 11:55:33;;;;;;;44.00;27.20;;;;;;;;;;108215;1250;24192;-79
2023/04/17 11:58:00;;;;;;;48.20;28.20;;;;;;;;;;107973;1250;23655;-78
2023/04/17 12:00:30;;;;;;;41.00;25.80;;;;;;;;;;107764;1249;25378;-79
2023/04/17 12:02:56;;;;;;;43.70;24.50;;;;;;;;;;107670;1250;25337;-78
2023/04/17 12:05:23;;;;;;;40.20;25.50;;;;;;;;;;107686;1248;22519;-80
2023/04/17 12:08:00;;;;;;;42.40;25.40;;;;;;;;;;109207;1249;22699;-79
2023/04/17 12:10:36;;;;;;;29.60;18.90;;;;;;;;;;107735;1250;22547;-79
2023/04/17 12:13:03;;;;;;;29.10;20.60;;;;;;;;;;107660;1250;22863;-80
2023/04/17 12:15:29;;;;;;;33.90;19.00;;;;;;;;;;107737;1252;25352;-80
2023/04/17 12:17:55;;;;;;;25.80;16.60;;;;;;;;;;107899;1253;22506;-79
2023/04/17 12:20:22;;;;;;;22.10;15.80;;;;;;;;;;107803;1250;25224;-79
2023/04/17 12:22:48;;;;;;;26.00;18.00;;;;;;;;;;108419;1250;22576;-79
2023/04/17 12:25:15;;;;;;;25.20;16.20;;;;;;;;;;108248;1249;24194;-80
2023/04/17 12:27:41;;;;;;;29.40;19.90;;;;;;;;;;108558;1250;25377;-79
2023/04/17 12:30:08;;;;;;;26.70;17.10;;;;;;;;;;108547;1250;22656;-81
2023/04/17 12:32:34;;;;;;;32.30;20.50;;;;;;;;;;108303;1248;25509;-79
2023/04/17 12:35:00;;;;;;;32.70;18.80;;;;;;;;;;108238;1250;22570;-79
2023/04/17 12:37:27;;;;;;;22.00;13.50;;;;;;;;;;108568;1250;22532;-80
2023/04/17 12:39:53;;;;;;;17.30;12.30;;;;;;;;;;108532;1251;25370;-81
2023/04/17 12:42:19;;;;;;;16.50;12.40;;;;;;;;;;108747;1252;23143;-79
2023/04/17 12:44:46;;;;;;;28.30;17.20;;;;;;;;;;109038;1251;22906;-80
2023/04/17 12:47:12;;;;;;;21.80;13.80;;;;;;;;;;109027;1250;25550;-81
2023/04/17 12:49:38;;;;;;;26.20;16.00;;;;;;;;;;108640;1250;22535;-79
2023/04/17 12:52:05;;;;;;;24.60;15.70;;;;;;;;;;108587;1250;22610;-81
2023/04/17 12:54:31;;;;;;;21.30;13.60;;;;;;;;;;108603;1252;23226;-80
2023/04/17 12:56:58;;;;;;;16.80;12.40;;;;;;;;;;108764;1250;22574;-80
2023/04/17 12:59:24;;;;;;;21.50;14.10;;;;;;;;;;108661;1250;22591;-79
2023/04/17 13:01:50;;;;;;;16.70;11.10;;;;;;;;;;108559;1250;22536;-80
2023/04/17 13:04:17;;;;;;;19.90;12.50;;;;;;;;;;108663;1248;22525;-80
2023/04/17 13:06:43;;;;;;;15.20;10.70;;;;;;;;;;108797;1250;22542;-79
2023/04/17 13:09:10;;;;;;;28.60;17.50;;;;;;;;;;108649;1250;22637;-80
2023/04/17 13:11:36;;;;;;;18.20;12.20;;;;;;;;;;108564;1252;22570;-79
2023/04/17 13:14:02;;;;;;;23.30;17.10;;;;;;;;;;108551;1249;22557;-80
2023/04/17 13:16:29;;;;;;;21.70;14.50;;;;;;;;;;109396;1252;23147;-79
2023/04/17 13:18:55;;;;;;;21.40;14.10;;;;;;;;;;109402;1251;23130;-81
2023/04/17 13:21:21;;;;;;;23.00;16.40;;;;;;;;;;109156;1250;26361;-79
2023/04/17 13:23:48;;;;;;;50.40;29.50;;;;;;;;;;108077;1253;25509;-79
2023/04/17 13:26:14;;;;;;;36.90;23.00;;;;;;;;;;108444;1251;26395;-79
2023/04/17 13:28:40;;;;;;;22.60;14.50;;;;;;;;;;108368;1250;22532;-80
2023/04/17 13:31:07;;;;;;;41.10;26.70;;;;;;;;;;108379;1251;24304;-79
2023/04/17 13:33:33;;;;;;;27.20;17.40;;;;;;;;;;107874;1248;22537;-79
2023/04/17 13:35:59;;;;;;;86.50;48.40;;;;;;;;;;107919;1249;22568;-80
2023/04/17 13:38:26;;;;;;;37.30;22.80;;;;;;;;;;107908;1250;23258;-79
2023/04/17 13:40:52;;;;;;;98.50;52.60;;;;;;;;;;108162;1252;25510;-79
2023/04/17 13:43:18;;;;;;;18.20;11.20;;;;;;;;;;108114;1252;22656;-81
2023/04/17 13:45:45;;;;;;;85.70;51.50;;;;;;;;;;107719;1252;22546;-81
2023/04/17 13:48:11;;;;;;;60.30;38.80;;;;;;;;;;108002;1252;23324;-79
2023/04/17 13:50:38;;;;;;;20.60;15.10;;;;;;;;;;108069;1250;22533;-79
2023/04/17 13:53:04;;;;;;;13.90;9.90;;;;;;;;;;107753;1251;25277;-79
2023/04/17 13:55:30;;;;;;;17.30;11.30;;;;;;;;;;107861;1251;22557;-81
2023/04/17 13:57:57;;;;;;;17.80;11.80;;;;;;;;;;108205;1253;22476;-81
2023/04/17 14:00:23;;;;;;;20.40;14.10;;;;;;;;;;108158;1253;156069;-79
2023/04/17 14:02:49;;;;;;;27.50;19.90;;;;;;;;;;108141;1250;22600;-79
2023/04/17 14:05:16;;;;;;;11.90;8.20;;;;;;;;;;108728;1251;22612;-80